sensor_id;sensor_type;location;lat;lon;timestamp;temperature;humidity
27162;DHT22;54464;50.558;9.704;2024-01-10T00:00:38;-7.00;99.90
27162;DHT22;54464;50.558;9.704;2024-01-10T00:03:04;-6.90;99.90
27162;DHT22;54464;50.558;9.704;2024-01-10T00:05:29;-6.90;99.90
27162;DHT22;54464;50.558;9.704;2024-01-10T00:07:55;-6.90;99.90
27162;DHT22;54464;50.558;9.704;2024-01-10T00:10:20;-6.90;99.90
27162;DHT22;54464;50.558;9.704;2024-01-10T00:12:49;-6.90;99.90
27162;DHT22;54464;50.558;9.704;2024-01-10T00:15:14;-7.00;99.90
27162;DHT22;54464;50.558;9.704;2024-01-10T00:17:40;-7.00;99.90
27162;DHT22;54464;50.558;9.704;2024-01-10T00:20:07;-7.00;99.90
27162;DHT22;54464;50.558;9.704;2024-01-10T00:22:33;-7.10;99.90
27162;DHT22;54464;50.558;9.704;2024-01-10T00:24:58;-7.10;99.90
27162;DHT22;54464;50.558;9.704;2024-01-10T00:27:24;-7.10;99.90
27162;DHT22;54464;50.558;9.704;2024-01-10T00:29:50;-7.10;99.90
27162;DHT22;54464;50.558;9.704;2024-01-10T00:32:17;-7.20;99.90
27162;DHT22;54464;50.558;9.704;2024-01-10T00:34:42;-7.10;99.90
27162;DHT22;54464;50.558;9.704;2024-01-10T00:37:08;-7.00;99.90
27162;DHT22;54464;50.558;9.704;2024-01-10T00:39:34;-7.00;99.90
27162;DHT22;54464;50.558;9.704;2024-01-10T00:41:59;-6.90;99.90
27162;DHT22;54464;50.558;9.704;2024-01-10T00:44:25;-6.90;99.90
27162;DHT22;54464;50.558;9.704;2024-01-10T00:46:50;-6.80;99.90
27162;DHT22;54464;50.558;9.704;2024-01-10T00:49:16;-6.80;99.90
27162;DHT22;54464;50.558;9.704;2024-01-10T00:51:42;-6.90;99.90
27162;DHT22;54464;50.558;9.704;2024-01-10T00:54:07;-6.90;99.90
27162;DHT22;54464;50.558;9.704;2024-01-10T00:56:33;-6.90;99.90
27162;DHT22;54464;50.558;9.704;2024-01-10T00:58:58;-6.90;99.90
27162;DHT22;54464;50.558;9.704;2024-01-10T01:01:24;-6.90;99.90
27162;DHT22;54464;50.558;9.704;2024-01-10T01:03:50;-7.10;99.90
27162;DHT22;54464;50.558;9.704;2024-01-10T01:06:16;-7.20;99.90
27162;DHT22;54464;50.558;9.704;2024-01-10T01:08:41;-7.20;99.90
27162;DHT22;54464;50.558;9.704;2024-01-10T01:11:07;-7.20;99.90
27162;DHT22;54464;50.558;9.704;2024-01-10T01:13:32;-7.20;99.90
27162;DHT22;54464;50.558;9.704;2024-01-10T01:15:58;-7.10;99.90
27162;DHT22;54464;50.558;9.704;2024-01-10T01:18:24;-7.10;99.90
27162;DHT22;54464;50.558;9.704;2024-01-10T01:20:49;-7.10;99.90
27162;DHT22;54464;50.558;9.704;2024-01-10T01:23:16;-7.20;99.90
27162;DHT22;54464;50.558;9.704;2024-01-10T01:25:41;-7.30;99.90
27162;DHT22;54464;50.558;9.704;2024-01-10T01:28:08;-7.40;99.90
27162;DHT22;54464;50.558;9.704;2024-01-10T01:30:33;-7.40;99.90
27162;DHT22;54464;50.558;9.704;2024-01-10T01:32:59;-7.50;99.90
27162;DHT22;54464;50.558;9.704;2024-01-10T01:35:24;-7.60;99.90
27162;DHT22;54464;50.558;9.704;2024-01-10T01:37:50;-7.70;99.90
27162;DHT22;54464;50.558;9.704;2024-01-10T01:40:18;-7.80;99.90
27162;DHT22;54464;50.558;9.704;2024-01-10T01:42:45;-8.00;99.90
27162;DHT22;54464;50.558;9.704;2024-01-10T01:45:11;-8.00;99.90
27162;DHT22;54464;50.558;9.704;2024-01-10T01:47:38;-8.00;99.90
27162;DHT22;54464;50.558;9.704;2024-01-10T01:50:04;-8.10;99.90
27162;DHT22;54464;50.558;9.704;2024-01-10T01:52:31;-8.30;99.90
27162;DHT22;54464;50.558;9.704;2024-01-10T01:54:57;-8.30;99.90
27162;DHT22;54464;50.558;9.704;2024-01-10T01:57:23;-8.20;99.90
27162;DHT22;54464;50.558;9.704;2024-01-10T01:59:49;-8.10;99.90
27162;DHT22;54464;50.558;9.704;2024-01-10T02:02:16;-8.00;99.90
27162;DHT22;54464;50.558;9.704;2024-01-10T02:04:42;-7.90;99.90
27162;DHT22;54464;50.558;9.704;2024-01-10T02:07:09;-7.70;99.90
27162;DHT22;54464;50.558;9.704;2024-01-10T02:09:34;-7.60;99.90
27162;DHT22;54464;50.558;9.704;2024-01-10T02:12:00;-7.60;99.90
27162;DHT22;54464;50.558;9.704;2024-01-10T02:14:25;-7.50;99.90
27162;DHT22;54464;50.558;9.704;2024-01-10T02:16:51;-7.50;99.90
27162;DHT22;54464;50.558;9.704;2024-01-10T02:19:21;-7.50;99.90
27162;DHT22;54464;50.558;9.704;2024-01-10T02:21:47;-7.50;99.90
27162;DHT22;54464;50.558;9.704;2024-01-10T02:24:13;-7.50;99.90
27162;DHT22;54464;50.558;9.704;2024-01-10T02:26:39;-7.40;99.90
27162;DHT22;54464;50.558;9.704;2024-01-10T02:29:05;-7.40;99.90
27162;DHT22;54464;50.558;9.704;2024-01-10T02:31:30;-7.40;99.90
27162;DHT22;54464;50.558;9.704;2024-01-10T02:33:56;-7.40;99.90
27162;DHT22;54464;50.558;9.704;2024-01-10T02:36:21;-7.30;99.90
27162;DHT22;54464;50.558;9.704;2024-01-10T02:38:47;-7.30;99.90
27162;DHT22;54464;50.558;9.704;2024-01-10T02:41:13;-7.30;99.90
27162;DHT22;54464;50.558;9.704;2024-01-10T02:43:39;-7.30;99.90
27162;DHT22;54464;50.558;9.704;2024-01-10T02:46:04;-7.40;99.90
27162;DHT22;54464;50.558;9.704;2024-01-10T02:48:30;-7.40;99.90
27162;DHT22;54464;50.558;9.704;2024-01-10T02:50:55;-7.40;99.90
27162;DHT22;54464;50.558;9.704;2024-01-10T02:53:21;-7.40;99.90
27162;DHT22;54464;50.558;9.704;2024-01-10T02:55:47;-7.40;99.90
27162;DHT22;54464;50.558;9.704;2024-01-10T02:58:14;-7.40;99.90
27162;DHT22;54464;50.558;9.704;2024-01-10T03:00:40;-7.40;99.90
27162;DHT22;54464;50.558;9.704;2024-01-10T03:03:05;-7.50;99.90
27162;DHT22;54464;50.558;9.704;2024-01-10T03:05:31;-7.60;99.90
27162;DHT22;54464;50.558;9.704;2024-01-10T03:07:56;-7.80;99.90
27162;DHT22;54464;50.558;9.704;2024-01-10T03:10:22;-7.80;99.90
27162;DHT22;54464;50.558;9.704;2024-01-10T03:12:48;-7.60;99.90
27162;DHT22;54464;50.558;9.704;2024-01-10T03:15:13;-7.60;99.90
27162;DHT22;54464;50.558;9.704;2024-01-10T03:17:39;-7.50;99.90
27162;DHT22;54464;50.558;9.704;2024-01-10T03:20:05;-7.40;99.90
27162;DHT22;54464;50.558;9.704;2024-01-10T03:22:31;-7.40;99.90
27162;DHT22;54464;50.558;9.704;2024-01-10T03:24:57;-7.40;99.90
27162;DHT22;54464;50.558;9.704;2024-01-10T03:27:23;-7.70;99.90
27162;DHT22;54464;50.558;9.704;2024-01-10T03:29:48;-7.90;99.90
27162;DHT22;54464;50.558;9.704;2024-01-10T03:32:14;-8.00;99.90
27162;DHT22;54464;50.558;9.704;2024-01-10T03:34:41;-7.90;99.90
27162;DHT22;54464;50.558;9.704;2024-01-10T03:37:07;-7.80;99.90
27162;DHT22;54464;50.558;9.704;2024-01-10T03:39:32;-7.70;99.90
27162;DHT22;54464;50.558;9.704;2024-01-10T03:41:58;-7.60;99.90
27162;DHT22;54464;50.558;9.704;2024-01-10T03:44:23;-7.50;99.90
27162;DHT22;54464;50.558;9.704;2024-01-10T03:46:49;-7.60;99.90
27162;DHT22;54464;50.558;9.704;2024-01-10T03:49:15;-7.70;99.90
27162;DHT22;54464;50.558;9.704;2024-01-10T03:51:40;-7.70;99.90
27162;DHT22;54464;50.558;9.704;2024-01-10T03:54:07;-7.70;99.90
27162;DHT22;54464;50.558;9.704;2024-01-10T03:56:32;-7.70;99.90
27162;DHT22;54464;50.558;9.704;2024-01-10T03:58:58;-7.50;99.90
27162;DHT22;54464;50.558;9.704;2024-01-10T04:01:26;-7.60;99.90
27162;DHT22;54464;50.558;9.704;2024-01-10T04:03:52;-7.50;99.90
27162;DHT22;54464;50.558;9.704;2024-01-10T04:06:17;-7.50;99.90
27162;DHT22;54464;50.558;9.704;2024-01-10T04:08:43;-7.40;99.90
27162;DHT22;54464;50.558;9.704;2024-01-10T04:11:09;-7.40;99.90
27162;DHT22;54464;50.558;9.704;2024-01-10T04:13:34;-7.50;99.90
27162;DHT22;54464;50.558;9.704;2024-01-10T04:16:00;-7.50;99.90
27162;DHT22;54464;50.558;9.704;2024-01-10T04:18:26;-7.40;99.90
27162;DHT22;54464;50.558;9.704;2024-01-10T04:20:51;-7.40;99.90
27162;DHT22;54464;50.558;9.704;2024-01-10T04:23:17;-7.40;99.90
27162;DHT22;54464;50.558;9.704;2024-01-10T04:25:43;-7.40;99.90
27162;DHT22;54464;50.558;9.704;2024-01-10T04:28:08;-7.40;99.90
27162;DHT22;54464;50.558;9.704;2024-01-10T04:30:34;-7.40;99.90
27162;DHT22;54464;50.558;9.704;2024-01-10T04:32:59;-7.30;99.90
27162;DHT22;54464;50.558;9.704;2024-01-10T04:35:25;-7.30;99.90
27162;DHT22;54464;50.558;9.704;2024-01-10T04:37:51;-7.20;99.90
27162;DHT22;54464;50.558;9.704;2024-01-10T04:40:16;-7.30;99.90
27162;DHT22;54464;50.558;9.704;2024-01-10T04:42:43;-7.30;99.90
27162;DHT22;54464;50.558;9.704;2024-01-10T04:45:09;-7.20;99.90
27162;DHT22;54464;50.558;9.704;2024-01-10T04:47:35;-7.20;99.90
27162;DHT22;54464;50.558;9.704;2024-01-10T04:50:00;-7.10;99.90
27162;DHT22;54464;50.558;9.704;2024-01-10T04:52:26;-7.00;99.90
27162;DHT22;54464;50.558;9.704;2024-01-10T04:54:52;-7.00;99.90
27162;DHT22;54464;50.558;9.704;2024-01-10T04:57:17;-6.90;99.90
27162;DHT22;54464;50.558;9.704;2024-01-10T04:59:43;-7.00;99.90
27162;DHT22;54464;50.558;9.704;2024-01-10T05:02:09;-6.90;99.90
27162;DHT22;54464;50.558;9.704;2024-01-10T05:04:35;-7.00;99.90
27162;DHT22;54464;50.558;9.704;2024-01-10T05:07:01;-7.00;99.90
27162;DHT22;54464;50.558;9.704;2024-01-10T05:09:26;-7.00;99.90
27162;DHT22;54464;50.558;9.704;2024-01-10T05:11:52;-7.00;99.90
27162;DHT22;54464;50.558;9.704;2024-01-10T05:14:18;-7.00;99.90
27162;DHT22;54464;50.558;9.704;2024-01-10T05:16:47;-7.00;99.90
27162;DHT22;54464;50.558;9.704;2024-01-10T05:19:15;-7.00;99.90
27162;DHT22;54464;50.558;9.704;2024-01-10T05:21:41;-7.10;99.90
27162;DHT22;54464;50.558;9.704;2024-01-10T05:24:07;-7.20;99.90
27162;DHT22;54464;50.558;9.704;2024-01-10T05:26:32;-7.50;99.90
27162;DHT22;54464;50.558;9.704;2024-01-10T05:28:58;-7.50;99.90
27162;DHT22;54464;50.558;9.704;2024-01-10T05:31:23;-7.40;99.90
27162;DHT22;54464;50.558;9.704;2024-01-10T05:33:49;-7.40;99.90
27162;DHT22;54464;50.558;9.704;2024-01-10T05:36:15;-7.40;99.90
27162;DHT22;54464;50.558;9.704;2024-01-10T05:38:40;-7.40;99.90
27162;DHT22;54464;50.558;9.704;2024-01-10T05:41:06;-7.40;99.90
27162;DHT22;54464;50.558;9.704;2024-01-10T05:43:32;-7.40;99.90
27162;DHT22;54464;50.558;9.704;2024-01-10T05:45:58;-7.40;99.90
27162;DHT22;54464;50.558;9.704;2024-01-10T05:48:24;-7.40;99.90
27162;DHT22;54464;50.558;9.704;2024-01-10T05:50:52;-7.40;99.90
27162;DHT22;54464;50.558;9.704;2024-01-10T05:53:18;-7.40;99.90
27162;DHT22;54464;50.558;9.704;2024-01-10T05:55:46;-7.20;99.90
27162;DHT22;54464;50.558;9.704;2024-01-10T05:58:15;-7.40;99.90
27162;DHT22;54464;50.558;9.704;2024-01-10T06:00:40;-7.40;99.90
27162;DHT22;54464;50.558;9.704;2024-01-10T06:03:06;-7.40;99.90
27162;DHT22;54464;50.558;9.704;2024-01-10T06:05:32;-7.40;99.90
27162;DHT22;54464;50.558;9.704;2024-01-10T06:08:01;-7.30;99.90
27162;DHT22;54464;50.558;9.704;2024-01-10T06:10:29;-7.30;99.90
27162;DHT22;54464;50.558;9.704;2024-01-10T06:12:55;-7.30;99.90
27162;DHT22;54464;50.558;9.704;2024-01-10T06:15:26;-7.20;99.90
27162;DHT22;54464;50.558;9.704;2024-01-10T06:17:51;-7.20;99.90
27162;DHT22;54464;50.558;9.704;2024-01-10T06:20:17;-7.30;99.90
27162;DHT22;54464;50.558;9.704;2024-01-10T06:22:43;-7.20;99.90
27162;DHT22;54464;50.558;9.704;2024-01-10T06:25:09;-7.20;99.90
27162;DHT22;54464;50.558;9.704;2024-01-10T06:27:34;-7.00;99.90
27162;DHT22;54464;50.558;9.704;2024-01-10T06:30:00;-6.80;99.90
27162;DHT22;54464;50.558;9.704;2024-01-10T06:32:26;-6.80;99.90
27162;DHT22;54464;50.558;9.704;2024-01-10T06:34:52;-6.80;99.90
27162;DHT22;54464;50.558;9.704;2024-01-10T06:37:18;-6.80;99.90
27162;DHT22;54464;50.558;9.704;2024-01-10T06:39:44;-6.70;99.90
27162;DHT22;54464;50.558;9.704;2024-01-10T06:42:11;-6.70;99.90
27162;DHT22;54464;50.558;9.704;2024-01-10T06:44:37;-6.80;99.90
27162;DHT22;54464;50.558;9.704;2024-01-10T06:47:03;-6.70;99.90
27162;DHT22;54464;50.558;9.704;2024-01-10T06:49:31;-6.80;99.90
27162;DHT22;54464;50.558;9.704;2024-01-10T06:51:57;-6.70;99.90
27162;DHT22;54464;50.558;9.704;2024-01-10T06:54:22;-6.60;99.90
27162;DHT22;54464;50.558;9.704;2024-01-10T06:56:48;-6.60;99.90
27162;DHT22;54464;50.558;9.704;2024-01-10T06:59:16;-6.70;99.90
27162;DHT22;54464;50.558;9.704;2024-01-10T07:01:42;-6.70;99.90
27162;DHT22;54464;50.558;9.704;2024-01-10T07:04:08;-6.70;99.90
27162;DHT22;54464;50.558;9.704;2024-01-10T07:06:33;-6.80;99.90
27162;DHT22;54464;50.558;9.704;2024-01-10T07:08:59;-6.90;99.90
27162;DHT22;54464;50.558;9.704;2024-01-10T07:11:27;-6.90;99.90
27162;DHT22;54464;50.558;9.704;2024-01-10T07:13:54;-6.80;99.90
27162;DHT22;54464;50.558;9.704;2024-01-10T07:16:20;-6.70;99.90
27162;DHT22;54464;50.558;9.704;2024-01-10T07:18:45;-6.60;99.90
27162;DHT22;54464;50.558;9.704;2024-01-10T07:21:12;-6.60;99.90
27162;DHT22;54464;50.558;9.704;2024-01-10T07:23:38;-6.50;99.90
27162;DHT22;54464;50.558;9.704;2024-01-10T07:26:06;-6.60;99.90
27162;DHT22;54464;50.558;9.704;2024-01-10T07:28:32;-6.50;99.90
27162;DHT22;54464;50.558;9.704;2024-01-10T07:30:58;-6.60;99.90
27162;DHT22;54464;50.558;9.704;2024-01-10T07:33:24;-6.60;99.90
27162;DHT22;54464;50.558;9.704;2024-01-10T07:35:49;-6.90;99.90
27162;DHT22;54464;50.558;9.704;2024-01-10T07:38:15;-6.80;99.90
27162;DHT22;54464;50.558;9.704;2024-01-10T07:40:40;-6.80;99.90
27162;DHT22;54464;50.558;9.704;2024-01-10T07:43:06;-6.80;99.90
27162;DHT22;54464;50.558;9.704;2024-01-10T07:45:31;-6.80;99.90
27162;DHT22;54464;50.558;9.704;2024-01-10T07:47:58;-6.70;99.90
27162;DHT22;54464;50.558;9.704;2024-01-10T07:50:24;-6.60;99.90
27162;DHT22;54464;50.558;9.704;2024-01-10T07:52:52;-6.60;99.90
27162;DHT22;54464;50.558;9.704;2024-01-10T07:55:18;-6.60;99.90
27162;DHT22;54464;50.558;9.704;2024-01-10T07:57:44;-6.60;99.90
27162;DHT22;54464;50.558;9.704;2024-01-10T08:00:12;-6.60;99.90
27162;DHT22;54464;50.558;9.704;2024-01-10T08:02:38;-7.00;99.90
27162;DHT22;54464;50.558;9.704;2024-01-10T08:05:05;-7.00;99.90
27162;DHT22;54464;50.558;9.704;2024-01-10T08:07:34;-6.80;99.90
27162;DHT22;54464;50.558;9.704;2024-01-10T08:10:09;-6.80;99.90
27162;DHT22;54464;50.558;9.704;2024-01-10T08:12:39;-6.80;99.90
27162;DHT22;54464;50.558;9.704;2024-01-10T08:15:05;-6.90;99.90
27162;DHT22;54464;50.558;9.704;2024-01-10T08:17:32;-7.10;99.90
27162;DHT22;54464;50.558;9.704;2024-01-10T08:19:58;-7.10;99.90
27162;DHT22;54464;50.558;9.704;2024-01-10T08:22:24;-7.00;99.90
27162;DHT22;54464;50.558;9.704;2024-01-10T08:24:49;-6.90;99.90
27162;DHT22;54464;50.558;9.704;2024-01-10T08:27:15;-7.00;99.90
27162;DHT22;54464;50.558;9.704;2024-01-10T08:29:42;-7.10;99.90
27162;DHT22;54464;50.558;9.704;2024-01-10T08:32:07;-7.10;99.90
27162;DHT22;54464;50.558;9.704;2024-01-10T08:34:33;-7.00;99.90
27162;DHT22;54464;50.558;9.704;2024-01-10T08:36:59;-7.10;99.90
27162;DHT22;54464;50.558;9.704;2024-01-10T08:39:24;-7.10;99.90
27162;DHT22;54464;50.558;9.704;2024-01-10T08:41:53;-6.90;99.90
27162;DHT22;54464;50.558;9.704;2024-01-10T08:44:19;-6.90;99.90
27162;DHT22;54464;50.558;9.704;2024-01-10T08:46:44;-6.70;99.90
27162;DHT22;54464;50.558;9.704;2024-01-10T08:49:10;-7.00;99.90
27162;DHT22;54464;50.558;9.704;2024-01-10T08:51:36;-6.90;99.90
27162;DHT22;54464;50.558;9.704;2024-01-10T08:54:02;-6.60;99.90
27162;DHT22;54464;50.558;9.704;2024-01-10T08:56:27;-6.50;99.90
27162;DHT22;54464;50.558;9.704;2024-01-10T08:58:53;-6.50;99.90
27162;DHT22;54464;50.558;9.704;2024-01-10T09:01:18;-6.40;99.90
27162;DHT22;54464;50.558;9.704;2024-01-10T09:03:44;-6.20;99.90
27162;DHT22;54464;50.558;9.704;2024-01-10T09:06:10;-6.10;99.90
27162;DHT22;54464;50.558;9.704;2024-01-10T09:08:36;-6.20;99.90
27162;DHT22;54464;50.558;9.704;2024-01-10T09:11:02;-6.20;99.90
27162;DHT22;54464;50.558;9.704;2024-01-10T09:13:28;-6.10;99.90
27162;DHT22;54464;50.558;9.704;2024-01-10T09:15:54;-6.00;99.90
27162;DHT22;54464;50.558;9.704;2024-01-10T09:18:19;-6.00;99.90
27162;DHT22;54464;50.558;9.704;2024-01-10T09:20:45;-5.70;99.90
27162;DHT22;54464;50.558;9.704;2024-01-10T09:23:10;-5.50;99.90
27162;DHT22;54464;50.558;9.704;2024-01-10T09:25:36;-5.30;99.90
27162;DHT22;54464;50.558;9.704;2024-01-10T09:28:04;-4.90;99.90
27162;DHT22;54464;50.558;9.704;2024-01-10T09:30:29;-4.30;99.90
27162;DHT22;54464;50.558;9.704;2024-01-10T09:32:55;-3.70;99.90
27162;DHT22;54464;50.558;9.704;2024-01-10T09:35:22;-3.00;99.90
27162;DHT22;54464;50.558;9.704;2024-01-10T09:37:47;-2.70;99.90
27162;DHT22;54464;50.558;9.704;2024-01-10T09:40:15;-2.10;99.90
27162;DHT22;54464;50.558;9.704;2024-01-10T09:42:43;-1.90;99.90
27162;DHT22;54464;50.558;9.704;2024-01-10T09:45:10;-1.60;99.90
27162;DHT22;54464;50.558;9.704;2024-01-10T09:47:39;-1.30;99.90
27162;DHT22;54464;50.558;9.704;2024-01-10T09:50:05;-1.30;99.90
27162;DHT22;54464;50.558;9.704;2024-01-10T09:52:36;-1.30;99.90
27162;DHT22;54464;50.558;9.704;2024-01-10T09:55:04;-1.20;99.90
27162;DHT22;54464;50.558;9.704;2024-01-10T09:57:30;-1.50;99.90
27162;DHT22;54464;50.558;9.704;2024-01-10T09:59:56;-1.30;99.90
27162;DHT22;54464;50.558;9.704;2024-01-10T10:02:23;-1.00;99.90
27162;DHT22;54464;50.558;9.704;2024-01-10T10:05:03;-0.70;99.90
27162;DHT22;54464;50.558;9.704;2024-01-10T10:07:29;-0.50;99.90
27162;DHT22;54464;50.558;9.704;2024-01-10T10:09:55;-0.30;99.90
27162;DHT22;54464;50.558;9.704;2024-01-10T10:12:41;0.00;99.90
27162;DHT22;54464;50.558;9.704;2024-01-10T10:15:16;-0.20;99.90
27162;DHT22;54464;50.558;9.704;2024-01-10T10:17:44;0.10;99.90
27162;DHT22;54464;50.558;9.704;2024-01-10T10:20:26;0.00;99.90
27162;DHT22;54464;50.558;9.704;2024-01-10T10:23:09;0.30;99.90
27162;DHT22;54464;50.558;9.704;2024-01-10T10:25:44;-0.10;99.90
27162;DHT22;54464;50.558;9.704;2024-01-10T10:28:10;0.50;99.90
27162;DHT22;54464;50.558;9.704;2024-01-10T10:30:36;0.30;99.90
27162;DHT22;54464;50.558;9.704;2024-01-10T10:33:02;0.10;99.90
27162;DHT22;54464;50.558;9.704;2024-01-10T10:35:28;-0.40;99.90
27162;DHT22;54464;50.558;9.704;2024-01-10T10:37:54;-0.70;99.90
27162;DHT22;54464;50.558;9.704;2024-01-10T10:40:21;-1.30;99.90
27162;DHT22;54464;50.558;9.704;2024-01-10T10:42:48;-1.50;99.90
27162;DHT22;54464;50.558;9.704;2024-01-10T10:45:16;-1.40;99.90
27162;DHT22;54464;50.558;9.704;2024-01-10T10:47:46;-1.30;99.90
27162;DHT22;54464;50.558;9.704;2024-01-10T10:50:21;-0.90;99.90
27162;DHT22;54464;50.558;9.704;2024-01-10T10:52:48;-0.80;99.90
27162;DHT22;54464;50.558;9.704;2024-01-10T10:55:20;-0.50;99.90
27162;DHT22;54464;50.558;9.704;2024-01-10T10:57:47;-0.50;99.90
27162;DHT22;54464;50.558;9.704;2024-01-10T11:00:14;-0.10;99.90
27162;DHT22;54464;50.558;9.704;2024-01-10T11:02:43;0.10;99.90
27162;DHT22;54464;50.558;9.704;2024-01-10T11:05:09;0.50;99.90
27162;DHT22;54464;50.558;9.704;2024-01-10T11:07:40;1.20;99.90
27162;DHT22;54464;50.558;9.704;2024-01-10T11:10:08;1.20;99.90
27162;DHT22;54464;50.558;9.704;2024-01-10T11:23:47;0.30;99.90
27162;DHT22;54464;50.558;9.704;2024-01-10T11:26:15;0.30;99.90
27162;DHT22;54464;50.558;9.704;2024-01-10T11:28:41;0.40;99.90
27162;DHT22;54464;50.558;9.704;2024-01-10T11:31:08;0.70;99.90
27162;DHT22;54464;50.558;9.704;2024-01-10T11:33:35;0.40;99.90
27162;DHT22;54464;50.558;9.704;2024-01-10T11:36:09;0.60;99.90
27162;DHT22;54464;50.558;9.704;2024-01-10T11:41:19;0.00;99.90
27162;DHT22;54464;50.558;9.704;2024-01-10T11:43:45;0.30;99.90
27162;DHT22;54464;50.558;9.704;2024-01-10T11:46:12;0.40;99.90
27162;DHT22;54464;50.558;9.704;2024-01-10T11:48:38;0.70;99.90
27162;DHT22;54464;50.558;9.704;2024-01-10T11:51:04;0.70;99.90
27162;DHT22;54464;50.558;9.704;2024-01-10T11:53:43;0.90;99.90
27162;DHT22;54464;50.558;9.704;2024-01-10T11:56:13;0.80;99.90
27162;DHT22;54464;50.558;9.704;2024-01-10T11:58:55;0.90;99.90
27162;DHT22;54464;50.558;9.704;2024-01-10T12:01:21;1.00;99.90
27162;DHT22;54464;50.558;9.704;2024-01-10T12:03:51;0.90;99.90
27162;DHT22;54464;50.558;9.704;2024-01-10T12:06:17;1.00;99.90
27162;DHT22;54464;50.558;9.704;2024-01-10T12:08:43;1.10;99.90
27162;DHT22;54464;50.558;9.704;2024-01-10T12:11:08;1.10;99.90
27162;DHT22;54464;50.558;9.704;2024-01-10T12:13:34;1.00;99.90
27162;DHT22;54464;50.558;9.704;2024-01-10T12:16:00;1.00;99.90
27162;DHT22;54464;50.558;9.704;2024-01-10T12:18:26;1.20;99.90
27162;DHT22;54464;50.558;9.704;2024-01-10T12:20:51;1.20;99.90
27162;DHT22;54464;50.558;9.704;2024-01-10T12:23:17;1.00;99.90
27162;DHT22;54464;50.558;9.704;2024-01-10T12:25:42;1.20;99.90
27162;DHT22;54464;50.558;9.704;2024-01-10T12:28:08;1.40;99.90
27162;DHT22;54464;50.558;9.704;2024-01-10T12:30:34;1.50;99.90
27162;DHT22;54464;50.558;9.704;2024-01-10T12:33:02;1.60;99.90
27162;DHT22;54464;50.558;9.704;2024-01-10T12:35:29;1.70;99.90
27162;DHT22;54464;50.558;9.704;2024-01-10T12:37:55;1.70;99.90
27162;DHT22;54464;50.558;9.704;2024-01-10T12:40:21;1.40;99.90
27162;DHT22;54464;50.558;9.704;2024-01-10T12:42:47;1.10;99.90
27162;DHT22;54464;50.558;9.704;2024-01-10T12:45:25;1.30;99.90
27162;DHT22;54464;50.558;9.704;2024-01-10T12:47:53;1.40;99.90
27162;DHT22;54464;50.558;9.704;2024-01-10T12:50:19;1.50;99.90
27162;DHT22;54464;50.558;9.704;2024-01-10T12:52:45;1.70;99.90
27162;DHT22;54464;50.558;9.704;2024-01-10T12:55:11;1.70;99.90
27162;DHT22;54464;50.558;9.704;2024-01-10T12:57:36;1.80;99.90
27162;DHT22;54464;50.558;9.704;2024-01-10T13:00:02;2.00;99.90
27162;DHT22;54464;50.558;9.704;2024-01-10T13:02:37;2.00;99.90
27162;DHT22;54464;50.558;9.704;2024-01-10T13:05:08;1.80;99.90
27162;DHT22;54464;50.558;9.704;2024-01-10T13:07:37;1.90;99.90
27162;DHT22;54464;50.558;9.704;2024-01-10T13:10:03;1.80;99.90
27162;DHT22;54464;50.558;9.704;2024-01-10T13:12:28;1.80;99.90
27162;DHT22;54464;50.558;9.704;2024-01-10T13:14:54;2.00;99.90
27162;DHT22;54464;50.558;9.704;2024-01-10T13:17:20;1.90;99.90
27162;DHT22;54464;50.558;9.704;2024-01-10T13:19:47;2.00;99.90
27162;DHT22;54464;50.558;9.704;2024-01-10T13:22:17;2.20;99.90
27162;DHT22;54464;50.558;9.704;2024-01-10T13:24:45;2.30;99.90
27162;DHT22;54464;50.558;9.704;2024-01-10T13:27:12;2.50;99.90
27162;DHT22;54464;50.558;9.704;2024-01-10T13:29:38;2.40;99.90
27162;DHT22;54464;50.558;9.704;2024-01-10T13:32:05;2.40;99.90
27162;DHT22;54464;50.558;9.704;2024-01-10T13:34:31;2.30;99.90
27162;DHT22;54464;50.558;9.704;2024-01-10T13:36:58;2.20;99.90
27162;DHT22;54464;50.558;9.704;2024-01-10T13:39:23;2.10;99.90
27162;DHT22;54464;50.558;9.704;2024-01-10T13:41:49;2.00;99.90
27162;DHT22;54464;50.558;9.704;2024-01-10T13:44:16;2.10;99.90
27162;DHT22;54464;50.558;9.704;2024-01-10T13:46:41;2.20;99.90
27162;DHT22;54464;50.558;9.704;2024-01-10T13:49:07;1.70;99.90
27162;DHT22;54464;50.558;9.704;2024-01-10T13:51:32;2.00;99.90
27162;DHT22;54464;50.558;9.704;2024-01-10T13:53:58;1.90;99.90
27162;DHT22;54464;50.558;9.704;2024-01-10T13:56:24;2.00;99.90
27162;DHT22;54464;50.558;9.704;2024-01-10T13:58:49;1.80;99.90
27162;DHT22;54464;50.558;9.704;2024-01-10T14:01:15;1.70;99.90
27162;DHT22;54464;50.558;9.704;2024-01-10T14:03:41;1.80;99.90
27162;DHT22;54464;50.558;9.704;2024-01-10T14:06:06;1.60;99.90
27162;DHT22;54464;50.558;9.704;2024-01-10T14:08:32;1.80;99.90
27162;DHT22;54464;50.558;9.704;2024-01-10T14:10:57;1.90;99.90
27162;DHT22;54464;50.558;9.704;2024-01-10T14:13:23;2.10;99.90
27162;DHT22;54464;50.558;9.704;2024-01-10T14:15:49;2.20;99.90
27162;DHT22;54464;50.558;9.704;2024-01-10T14:18:14;2.50;99.90
27162;DHT22;54464;50.558;9.704;2024-01-10T14:20:40;2.80;99.90
27162;DHT22;54464;50.558;9.704;2024-01-10T14:23:06;3.20;99.90
27162;DHT22;54464;50.558;9.704;2024-01-10T14:25:32;3.50;99.30
27162;DHT22;54464;50.558;9.704;2024-01-10T14:27:57;3.20;99.80
27162;DHT22;54464;50.558;9.704;2024-01-10T14:30:24;2.90;99.90
27162;DHT22;54464;50.558;9.704;2024-01-10T14:32:50;2.50;99.90
27162;DHT22;54464;50.558;9.704;2024-01-10T14:35:16;2.20;99.90
27162;DHT22;54464;50.558;9.704;2024-01-10T14:37:42;1.50;99.90
27162;DHT22;54464;50.558;9.704;2024-01-10T14:40:08;1.00;99.90
27162;DHT22;54464;50.558;9.704;2024-01-10T14:42:34;0.60;99.90
27162;DHT22;54464;50.558;9.704;2024-01-10T14:45:00;0.40;99.90
27162;DHT22;54464;50.558;9.704;2024-01-10T14:47:26;0.30;99.90
27162;DHT22;54464;50.558;9.704;2024-01-10T14:49:52;0.40;99.90
27162;DHT22;54464;50.558;9.704;2024-01-10T14:52:17;0.30;99.90
27162;DHT22;54464;50.558;9.704;2024-01-10T14:54:43;0.20;99.90
27162;DHT22;54464;50.558;9.704;2024-01-10T14:57:09;0.30;99.90
27162;DHT22;54464;50.558;9.704;2024-01-10T14:59:35;0.80;99.90
27162;DHT22;54464;50.558;9.704;2024-01-10T15:02:03;1.40;99.90
27162;DHT22;54464;50.558;9.704;2024-01-10T15:04:32;1.60;99.90
27162;DHT22;54464;50.558;9.704;2024-01-10T15:06:59;1.40;99.90
27162;DHT22;54464;50.558;9.704;2024-01-10T15:09:26;1.00;99.90
27162;DHT22;54464;50.558;9.704;2024-01-10T15:11:52;0.60;99.90
27162;DHT22;54464;50.558;9.704;2024-01-10T15:14:19;0.40;99.90
27162;DHT22;54464;50.558;9.704;2024-01-10T15:16:46;0.00;99.90
27162;DHT22;54464;50.558;9.704;2024-01-10T15:19:11;-0.20;99.90
27162;DHT22;54464;50.558;9.704;2024-01-10T15:21:37;-0.30;99.90
27162;DHT22;54464;50.558;9.704;2024-01-10T15:24:05;-0.40;99.90
27162;DHT22;54464;50.558;9.704;2024-01-10T15:26:30;-0.40;99.90
27162;DHT22;54464;50.558;9.704;2024-01-10T15:28:56;-0.50;99.90
27162;DHT22;54464;50.558;9.704;2024-01-10T15:31:24;-0.70;99.90
27162;DHT22;54464;50.558;9.704;2024-01-10T15:33:51;-0.80;99.90
27162;DHT22;54464;50.558;9.704;2024-01-10T15:36:16;-0.90;99.90
27162;DHT22;54464;50.558;9.704;2024-01-10T15:38:43;-1.00;99.90
27162;DHT22;54464;50.558;9.704;2024-01-10T15:41:09;-1.10;99.90
27162;DHT22;54464;50.558;9.704;2024-01-10T15:43:36;-1.30;99.90